sensor_id;sensor_type;location;lat;lon;timestamp;pressure;altitude;pressure_sealevel;temperature;humidity
10474;BME280;5284;50.446;7.904;2022-10-30T00:01:53;98745.06;;;12.90;100.00
10474;BME280;5284;50.446;7.904;2022-10-30T00:06:56;98750.28;;;12.91;100.00
10474;BME280;5284;50.446;7.904;2022-10-30T00:11:59;98749.44;;;12.91;100.00
10474;BME280;5284;50.446;7.904;2022-10-30T00:17:03;98738.03;;;12.89;100.00
10474;BME280;5284;50.446;7.904;2022-10-30T00:22:06;98733.09;;;12.84;100.00
10474;BME280;5284;50.446;7.904;2022-10-30T00:27:09;98727.63;;;12.76;100.00
10474;BME280;5284;50.446;7.904;2022-10-30T00:32:13;98723.22;;;12.75;100.00
10474;BME280;5284;50.446;7.904;2022-10-30T00:37:17;98723.22;;;12.75;100.00
10474;BME280;5284;50.446;7.904;2022-10-30T00:42:19;98717.75;;;12.77;100.00
10474;BME280;5284;50.446;7.904;2022-10-30T00:47:26;98721.97;;;12.70;100.00
10474;BME280;5284;50.446;7.904;2022-10-30T00:52:35;98719.69;;;12.65;100.00
10474;BME280;5284;50.446;7.904;2022-10-30T00:57:38;98720.84;;;12.63;100.00
10474;BME280;5284;50.446;7.904;2022-10-30T01:02:44;98722.94;;;12.59;100.00
10474;BME280;5284;50.446;7.904;2022-10-30T01:07:47;98728.16;;;12.61;100.00
10474;BME280;5284;50.446;7.904;2022-10-30T01:12:51;98728.97;;;12.52;100.00
10474;BME280;5284;50.446;7.904;2022-10-30T01:18:19;98729.41;;;12.47;100.00
10474;BME280;5284;50.446;7.904;2022-10-30T01:23:35;98730.50;;;12.45;100.00
10474;BME280;5284;50.446;7.904;2022-10-30T01:28:49;98730.22;;;12.48;100.00
10474;BME280;5284;50.446;7.904;2022-10-30T01:34:08;98733.72;;;12.39;100.00
10474;BME280;5284;50.446;7.904;2022-10-30T01:39:18;98736.53;;;12.37;100.00
10474;BME280;5284;50.446;7.904;2022-10-30T01:44:24;98731.75;;;12.41;100.00
10474;BME280;5284;50.446;7.904;2022-10-30T01:49:47;98731.75;;;12.41;100.00
10474;BME280;5284;50.446;7.904;2022-10-30T01:55:00;98738.09;;;12.40;100.00
10474;BME280;5284;50.446;7.904;2022-10-30T02:00:08;98757.91;;;12.37;100.00
10474;BME280;5284;50.446;7.904;2022-10-30T02:05:23;98744.44;;;12.39;100.00
10474;BME280;5284;50.446;7.904;2022-10-30T02:10:29;98732.59;;;12.32;100.00
10474;BME280;5284;50.446;7.904;2022-10-30T02:15:33;98736.53;;;12.28;100.00
10474;BME280;5284;50.446;7.904;2022-10-30T02:20:38;98717.09;;;12.26;100.00
10474;BME280;5284;50.446;7.904;2022-10-30T02:25:41;98733.66;;;12.20;100.00
10474;BME280;5284;50.446;7.904;2022-10-30T02:30:43;98727.75;;;12.17;100.00
10474;BME280;5284;50.446;7.904;2022-10-30T02:35:48;98731.53;;;12.14;100.00
10474;BME280;5284;50.446;7.904;2022-10-30T02:40:50;98734.22;;;12.14;100.00
10474;BME280;5284;50.446;7.904;2022-10-30T02:45:53;98729.56;;;12.16;100.00
10474;BME280;5284;50.446;7.904;2022-10-30T02:50:59;98721.81;;;12.13;100.00
10474;BME280;5284;50.446;7.904;2022-10-30T02:56:03;98712.25;;;12.11;100.00
10474;BME280;5284;50.446;7.904;2022-10-30T03:01:07;98711.69;;;12.07;100.00
10474;BME280;5284;50.446;7.904;2022-10-30T03:06:13;98704.06;;;12.03;100.00
10474;BME280;5284;50.446;7.904;2022-10-30T03:11:18;98709.81;;;11.98;100.00
10474;BME280;5284;50.446;7.904;2022-10-30T03:16:23;98710.94;;;11.96;100.00
10474;BME280;5284;50.446;7.904;2022-10-30T03:21:28;98708.53;;;11.93;100.00
10474;BME280;5284;50.446;7.904;2022-10-30T03:26:30;98707.66;;;11.83;100.00
10474;BME280;5284;50.446;7.904;2022-10-30T03:31:39;98715.38;;;11.86;100.00
10474;BME280;5284;50.446;7.904;2022-10-30T03:36:54;98707.50;;;11.84;100.00
10474;BME280;5284;50.446;7.904;2022-10-30T03:41:56;98712.53;;;11.78;100.00
10474;BME280;5284;50.446;7.904;2022-10-30T03:46:59;98702.78;;;11.67;100.00
10474;BME280;5284;50.446;7.904;2022-10-30T03:52:08;98700.50;;;11.63;100.00
10474;BME280;5284;50.446;7.904;2022-10-30T03:57:11;98696.91;;;11.53;100.00
10474;BME280;5284;50.446;7.904;2022-10-30T04:02:26;98702.34;;;11.42;100.00
10474;BME280;5284;50.446;7.904;2022-10-30T04:07:35;98695.09;;;11.33;100.00
10474;BME280;5284;50.446;7.904;2022-10-30T04:12:38;98700.00;;;11.28;100.00
10474;BME280;5284;50.446;7.904;2022-10-30T04:17:47;98712.53;;;11.16;100.00
10474;BME280;5284;50.446;7.904;2022-10-30T04:22:56;98712.09;;;11.11;100.00
10474;BME280;5284;50.446;7.904;2022-10-30T04:27:59;98704.00;;;11.02;100.00
10474;BME280;5284;50.446;7.904;2022-10-30T04:33:04;98706.22;;;10.97;100.00
10474;BME280;5284;50.446;7.904;2022-10-30T04:38:10;98713.91;;;10.90;100.00
10474;BME280;5284;50.446;7.904;2022-10-30T04:43:15;98704.97;;;10.80;100.00
10474;BME280;5284;50.446;7.904;2022-10-30T04:48:22;98694.22;;;10.71;100.00
10474;BME280;5284;50.446;7.904;2022-10-30T04:53:26;98697.66;;;10.62;100.00
10474;BME280;5284;50.446;7.904;2022-10-30T04:58:35;98693.53;;;10.58;100.00
10474;BME280;5284;50.446;7.904;2022-10-30T05:03:39;98689.44;;;10.54;100.00
10474;BME280;5284;50.446;7.904;2022-10-30T05:08:49;98684.63;;;10.48;100.00
10474;BME280;5284;50.446;7.904;2022-10-30T05:14:20;98681.81;;;10.50;100.00
10474;BME280;5284;50.446;7.904;2022-10-30T05:19:25;98697.84;;;10.39;100.00
10474;BME280;5284;50.446;7.904;2022-10-30T05:24:32;98695.91;;;10.41;100.00
10474;BME280;5284;50.446;7.904;2022-10-30T05:29:34;98694.94;;;10.42;100.00
10474;BME280;5284;50.446;7.904;2022-10-30T05:34:37;98694.56;;;10.35;100.00
10474;BME280;5284;50.446;7.904;2022-10-30T05:39:42;98685.66;;;10.25;100.00
10474;BME280;5284;50.446;7.904;2022-10-30T05:44:56;98693.28;;;10.19;100.00
10474;BME280;5284;50.446;7.904;2022-10-30T05:50:05;98691.72;;;10.16;100.00
10474;BME280;5284;50.446;7.904;2022-10-30T05:55:11;98703.97;;;10.08;100.00
10474;BME280;5284;50.446;7.904;2022-10-30T06:00:22;98700.19;;;9.99;100.00
10474;BME280;5284;50.446;7.904;2022-10-30T06:05:25;98700.09;;;9.90;100.00
10474;BME280;5284;50.446;7.904;2022-10-30T06:10:30;98709.53;;;9.83;100.00
10474;BME280;5284;50.446;7.904;2022-10-30T06:15:54;98715.56;;;9.85;100.00
10474;BME280;5284;50.446;7.904;2022-10-30T06:21:00;98721.03;;;9.83;100.00
10474;BME280;5284;50.446;7.904;2022-10-30T06:26:30;98721.03;;;9.83;100.00
10474;BME280;5284;50.446;7.904;2022-10-30T06:31:39;98716.78;;;9.81;100.00
10474;BME280;5284;50.446;7.904;2022-10-30T06:36:42;98718.47;;;9.82;100.00
10474;BME280;5284;50.446;7.904;2022-10-30T06:41:47;98716.69;;;9.82;100.00
10474;BME280;5284;50.446;7.904;2022-10-30T06:46:58;98725.63;;;9.92;100.00
10474;BME280;5284;50.446;7.904;2022-10-30T06:52:02;98726.81;;;9.99;100.00
10474;BME280;5284;50.446;7.904;2022-10-30T06:57:07;98709.06;;;10.11;100.00
10474;BME280;5284;50.446;7.904;2022-10-30T07:02:23;98712.91;;;10.18;100.00
10474;BME280;5284;50.446;7.904;2022-10-30T07:07:33;98709.28;;;10.30;100.00
10474;BME280;5284;50.446;7.904;2022-10-30T07:12:37;98709.94;;;10.43;100.00
10474;BME280;5284;50.446;7.904;2022-10-30T07:17:53;98718.88;;;10.63;100.00
10474;BME280;5284;50.446;7.904;2022-10-30T07:22:58;98716.34;;;10.82;100.00
10474;BME280;5284;50.446;7.904;2022-10-30T07:28:03;98724.69;;;10.89;100.00
10474;BME280;5284;50.446;7.904;2022-10-30T07:33:15;98730.59;;;11.03;100.00
10474;BME280;5284;50.446;7.904;2022-10-30T07:38:33;98733.91;;;11.16;100.00
10474;BME280;5284;50.446;7.904;2022-10-30T07:43:52;98721.94;;;11.31;100.00
10474;BME280;5284;50.446;7.904;2022-10-30T07:49:13;98727.34;;;11.41;100.00
10474;BME280;5284;50.446;7.904;2022-10-30T07:54:22;98722.28;;;11.58;100.00
10474;BME280;5284;50.446;7.904;2022-10-30T07:59:27;98729.63;;;11.96;100.00
10474;BME280;5284;50.446;7.904;2022-10-30T08:04:50;98722.84;;;12.21;100.00
10474;BME280;5284;50.446;7.904;2022-10-30T08:10:16;98740.50;;;12.43;100.00
10474;BME280;5284;50.446;7.904;2022-10-30T08:15:21;98743.50;;;12.68;100.00
10474;BME280;5284;50.446;7.904;2022-10-30T08:20:24;98739.91;;;12.98;100.00
10474;BME280;5284;50.446;7.904;2022-10-30T08:25:28;98735.81;;;13.22;100.00
10474;BME280;5284;50.446;7.904;2022-10-30T08:30:34;98731.56;;;13.48;100.00
10474;BME280;5284;50.446;7.904;2022-10-30T08:35:46;98730.19;;;13.80;100.00
10474;BME280;5284;50.446;7.904;2022-10-30T08:40:49;98730.56;;;14.04;100.00
10474;BME280;5284;50.446;7.904;2022-10-30T08:45:56;98734.50;;;14.37;100.00
10474;BME280;5284;50.446;7.904;2022-10-30T08:50:59;98728.50;;;14.52;100.00
10474;BME280;5284;50.446;7.904;2022-10-30T08:56:08;98734.00;;;14.95;100.00
10474;BME280;5284;50.446;7.904;2022-10-30T09:01:41;98732.88;;;15.32;100.00
10474;BME280;5284;50.446;7.904;2022-10-30T09:06:50;98733.81;;;15.66;100.00
10474;BME280;5284;50.446;7.904;2022-10-30T09:12:13;98730.28;;;15.66;100.00
10474;BME280;5284;50.446;7.904;2022-10-30T09:17:20;98732.63;;;15.86;100.00
10474;BME280;5284;50.446;7.904;2022-10-30T09:22:25;98729.22;;;16.10;100.00
10474;BME280;5284;50.446;7.904;2022-10-30T09:27:29;98718.44;;;16.35;100.00
10474;BME280;5284;50.446;7.904;2022-10-30T09:32:37;98724.72;;;16.52;100.00
10474;BME280;5284;50.446;7.904;2022-10-30T09:37:45;98722.81;;;16.86;100.00
10474;BME280;5284;50.446;7.904;2022-10-30T10:08:41;98722.44;;;18.70;100.00
10474;BME280;5284;50.446;7.904;2022-10-30T10:14:13;98712.13;;;18.74;100.00
10474;BME280;5284;50.446;7.904;2022-10-30T10:26:51;98710.84;;;19.15;100.00
10474;BME280;5284;50.446;7.904;2022-10-30T10:32:09;98711.06;;;19.58;100.00
10474;BME280;5284;50.446;7.904;2022-10-30T10:37:25;98708.75;;;19.84;99.87
10474;BME280;5284;50.446;7.904;2022-10-30T10:42:35;98706.81;;;19.93;95.22
10474;BME280;5284;50.446;7.904;2022-10-30T10:48:04;98697.63;;;19.79;95.35
10474;BME280;5284;50.446;7.904;2022-10-30T10:53:21;98691.81;;;20.33;93.01
10474;BME280;5284;50.446;7.904;2022-10-30T10:58:29;98698.69;;;20.79;90.58
10474;BME280;5284;50.446;7.904;2022-10-30T11:03:42;98696.28;;;20.70;89.41
10474;BME280;5284;50.446;7.904;2022-10-30T11:08:48;98689.72;;;21.14;87.99
10474;BME280;5284;50.446;7.904;2022-10-30T11:13:54;98680.97;;;21.19;86.40
10474;BME280;5284;50.446;7.904;2022-10-30T11:18:59;98684.75;;;21.39;83.55
10474;BME280;5284;50.446;7.904;2022-10-30T11:24:03;98669.28;;;21.60;83.11
10474;BME280;5284;50.446;7.904;2022-10-30T11:29:28;98669.66;;;21.57;79.89
10474;BME280;5284;50.446;7.904;2022-10-30T11:34:33;98676.81;;;22.13;77.74
10474;BME280;5284;50.446;7.904;2022-10-30T11:39:36;98675.91;;;22.80;77.58
10474;BME280;5284;50.446;7.904;2022-10-30T11:44:41;98665.81;;;23.15;72.51
10474;BME280;5284;50.446;7.904;2022-10-30T11:49:47;98667.72;;;23.72;71.15
10474;BME280;5284;50.446;7.904;2022-10-30T11:54:53;98672.72;;;24.21;66.17
10474;BME280;5284;50.446;7.904;2022-10-30T12:00:00;98661.84;;;24.84;67.25
10474;BME280;5284;50.446;7.904;2022-10-30T12:05:34;98663.53;;;25.16;63.03
10474;BME280;5284;50.446;7.904;2022-10-30T12:10:38;98661.81;;;24.27;66.21
10474;BME280;5284;50.446;7.904;2022-10-30T12:15:47;98657.66;;;24.12;68.48
10474;BME280;5284;50.446;7.904;2022-10-30T12:20:53;98659.72;;;24.23;69.52
10474;BME280;5284;50.446;7.904;2022-10-30T12:25:59;98647.38;;;24.14;69.25
10474;BME280;5284;50.446;7.904;2022-10-30T12:31:08;98650.31;;;23.28;69.73
10474;BME280;5284;50.446;7.904;2022-10-30T12:36:16;98647.06;;;22.86;72.55
10474;BME280;5284;50.446;7.904;2022-10-30T12:41:25;98645.13;;;22.33;72.50
10474;BME280;5284;50.446;7.904;2022-10-30T12:46:34;98647.16;;;21.84;77.81
10474;BME280;5284;50.446;7.904;2022-10-30T12:51:47;98635.25;;;21.85;77.89
10474;BME280;5284;50.446;7.904;2022-10-30T12:56:59;98628.25;;;21.76;80.28
10474;BME280;5284;50.446;7.904;2022-10-30T13:02:14;98622.03;;;21.55;79.30
10474;BME280;5284;50.446;7.904;2022-10-30T13:07:25;98620.88;;;21.43;80.67
10474;BME280;5284;50.446;7.904;2022-10-30T13:12:33;98618.72;;;21.32;80.71
10474;BME280;5284;50.446;7.904;2022-10-30T13:17:39;98617.72;;;21.39;82.25
10474;BME280;5284;50.446;7.904;2022-10-30T13:22:49;98616.97;;;21.03;82.29
10474;BME280;5284;50.446;7.904;2022-10-30T13:27:57;98619.59;;;21.11;82.96
10474;BME280;5284;50.446;7.904;2022-10-30T13:33:10;98622.91;;;21.34;83.45
10474;BME280;5284;50.446;7.904;2022-10-30T13:38:31;98622.97;;;21.20;83.97
10474;BME280;5284;50.446;7.904;2022-10-30T13:43:42;98614.19;;;21.18;85.18
10474;BME280;5284;50.446;7.904;2022-10-30T13:48:57;98613.41;;;21.24;84.50
10474;BME280;5284;50.446;7.904;2022-10-30T13:54:12;98618.19;;;21.43;84.48
10474;BME280;5284;50.446;7.904;2022-10-30T13:59:30;98617.38;;;21.49;83.36
10474;BME280;5284;50.446;7.904;2022-10-30T14:04:48;98615.94;;;21.53;84.44
10474;BME280;5284;50.446;7.904;2022-10-30T14:09:58;98612.16;;;21.47;84.67
10474;BME280;5284;50.446;7.904;2022-10-30T14:15:04;98612.19;;;21.26;85.88
10474;BME280;5284;50.446;7.904;2022-10-30T14:20:26;98615.03;;;21.18;87.29
10474;BME280;5284;50.446;7.904;2022-10-30T14:25:29;98613.16;;;21.19;87.01
10474;BME280;5284;50.446;7.904;2022-10-30T14:30:33;98616.09;;;21.17;87.93
10474;BME280;5284;50.446;7.904;2022-10-30T14:35:39;98629.19;;;21.14;88.66
10474;BME280;5284;50.446;7.904;2022-10-30T14:40:46;98618.00;;;20.81;91.51
10474;BME280;5284;50.446;7.904;2022-10-30T14:45:59;98623.56;;;20.94;91.31
10474;BME280;5284;50.446;7.904;2022-10-30T14:51:13;98619.75;;;20.89;92.22
10474;BME280;5284;50.446;7.904;2022-10-30T14:56:29;98627.53;;;20.77;92.58
10474;BME280;5284;50.446;7.904;2022-10-30T15:01:42;98633.31;;;20.53;94.16
10474;BME280;5284;50.446;7.904;2022-10-30T15:06:56;98623.38;;;20.25;96.69
10474;BME280;5284;50.446;7.904;2022-10-30T15:12:21;98629.53;;;20.05;98.56
10474;BME280;5284;50.446;7.904;2022-10-30T15:17:29;98640.25;;;19.84;99.43
10474;BME280;5284;50.446;7.904;2022-10-30T15:22:34;98643.19;;;19.60;100.00
10474;BME280;5284;50.446;7.904;2022-10-30T15:27:39;98650.81;;;19.42;100.00
10474;BME280;5284;50.446;7.904;2022-10-30T15:32:44;98648.66;;;19.15;100.00
10474;BME280;5284;50.446;7.904;2022-10-30T15:38:00;98655.44;;;18.88;100.00
10474;BME280;5284;50.446;7.904;2022-10-30T15:43:05;98649.41;;;18.56;100.00
10474;BME280;5284;50.446;7.904;2022-10-30T15:48:18;98655.94;;;18.23;100.00
10474;BME280;5284;50.446;7.904;2022-10-30T15:53:33;98658.59;;;17.93;100.00
10474;BME280;5284;50.446;7.904;2022-10-30T15:58:37;98668.59;;;17.68;100.00
10474;BME280;5284;50.446;7.904;2022-10-30T16:03:50;98671.66;;;17.33;100.00
10474;BME280;5284;50.446;7.904;2022-10-30T16:08:57;98667.28;;;17.08;100.00
10474;BME280;5284;50.446;7.904;2022-10-30T16:14:06;98668.78;;;16.87;100.00
10474;BME280;5284;50.446;7.904;2022-10-30T16:19:17;98676.09;;;16.53;100.00
10474;BME280;5284;50.446;7.904;2022-10-30T16:24:32;98678.00;;;16.27;100.00
10474;BME280;5284;50.446;7.904;2022-10-30T16:29:35;98685.97;;;16.03;100.00
10474;BME280;5284;50.446;7.904;2022-10-30T16:34:40;98685.03;;;15.87;100.00
10474;BME280;5284;50.446;7.904;2022-10-30T16:39:47;98690.09;;;15.64;100.00
10474;BME280;5284;50.446;7.904;2022-10-30T16:44:52;98680.94;;;15.49;100.00
10474;BME280;5284;50.446;7.904;2022-10-30T16:50:06;98692.41;;;15.34;100.00
10474;BME280;5284;50.446;7.904;2022-10-30T16:55:17;98704.53;;;15.21;100.00
10474;BME280;5284;50.446;7.904;2022-10-30T17:00:23;98709.75;;;15.05;100.00
10474;BME280;5284;50.446;7.904;2022-10-30T17:05:29;98715.13;;;14.87;100.00
10474;BME280;5284;50.446;7.904;2022-10-30T17:10:36;98726.91;;;14.77;100.00
10474;BME280;5284;50.446;7.904;2022-10-30T17:15:43;98733.75;;;14.71;100.00
10474;BME280;5284;50.446;7.904;2022-10-30T17:20:57;98737.41;;;14.53;100.00
10474;BME280;5284;50.446;7.904;2022-10-30T17:26:08;98738.19;;;14.36;100.00
10474;BME280;5284;50.446;7.904;2022-10-30T17:31:24;98750.13;;;14.14;100.00
10474;BME280;5284;50.446;7.904;2022-10-30T17:36:28;98756.81;;;14.01;100.00
10474;BME280;5284;50.446;7.904;2022-10-30T17:41:33;98760.97;;;13.86;100.00
10474;BME280;5284;50.446;7.904;2022-10-30T17:46:36;98770.44;;;13.71;100.00
10474;BME280;5284;50.446;7.904;2022-10-30T17:51:39;98758.78;;;13.53;100.00
10474;BME280;5284;50.446;7.904;2022-10-30T17:56:43;98768.09;;;13.40;100.00
10474;BME280;5284;50.446;7.904;2022-10-30T18:01:46;98774.84;;;13.25;100.00
10474;BME280;5284;50.446;7.904;2022-10-30T18:06:49;98787.13;;;13.18;100.00
10474;BME280;5284;50.446;7.904;2022-10-30T18:11:54;98783.72;;;13.06;100.00
10474;BME280;5284;50.446;7.904;2022-10-30T18:16:56;98796.41;;;12.95;100.00
10474;BME280;5284;50.446;7.904;2022-10-30T18:21:59;98797.78;;;12.89;100.00
10474;BME280;5284;50.446;7.904;2022-10-30T18:27:03;98813.84;;;12.89;100.00
10474;BME280;5284;50.446;7.904;2022-10-30T18:32:08;98816.63;;;12.78;100.00
10474;BME280;5284;50.446;7.904;2022-10-30T18:37:11;98821.25;;;12.67;100.00
10474;BME280;5284;50.446;7.904;2022-10-30T18:42:16;98828.25;;;12.58;100.00
10474;BME280;5284;50.446;7.904;2022-10-30T18:47:18;98824.00;;;12.56;100.00
10474;BME280;5284;50.446;7.904;2022-10-30T18:52:22;98824.84;;;12.47;100.00
10474;BME280;5284;50.446;7.904;2022-10-30T18:57:26;98823.97;;;12.37;100.00
10474;BME280;5284;50.446;7.904;2022-10-30T19:02:54;98826.00;;;12.24;100.00
10474;BME280;5284;50.446;7.904;2022-10-30T19:07:58;98822.97;;;12.08;100.00
10474;BME280;5284;50.446;7.904;2022-10-30T19:13:10;98832.78;;;11.98;100.00
10474;BME280;5284;50.446;7.904;2022-10-30T19:18:16;98833.16;;;11.94;100.00
10474;BME280;5284;50.446;7.904;2022-10-30T19:23:21;98835.03;;;11.82;100.00
10474;BME280;5284;50.446;7.904;2022-10-30T19:28:26;98839.41;;;11.83;100.00
10474;BME280;5284;50.446;7.904;2022-10-30T19:33:30;98844.56;;;11.75;100.00
10474;BME280;5284;50.446;7.904;2022-10-30T19:38:33;98839.09;;;11.77;100.00
10474;BME280;5284;50.446;7.904;2022-10-30T19:43:37;98834.75;;;11.76;100.00
10474;BME280;5284;50.446;7.904;2022-10-30T19:48:41;98837.78;;;11.71;100.00
10474;BME280;5284;50.446;7.904;2022-10-30T19:54:00;98837.72;;;11.62;100.00
10474;BME280;5284;50.446;7.904;2022-10-30T19:59:08;98841.38;;;11.61;100.00
10474;BME280;5284;50.446;7.904;2022-10-30T20:04:10;98837.34;;;11.66;100.00
10474;BME280;5284;50.446;7.904;2022-10-30T20:09:13;98842.81;;;11.65;100.00
10474;BME280;5284;50.446;7.904;2022-10-30T20:14:17;98840.66;;;11.59;100.00
10474;BME280;5284;50.446;7.904;2022-10-30T20:19:26;98846.13;;;11.46;100.00
10474;BME280;5284;50.446;7.904;2022-10-30T20:24:29;98845.69;;;11.41;100.00
10474;BME280;5284;50.446;7.904;2022-10-30T20:29:35;98848.41;;;11.30;100.00
10474;BME280;5284;50.446;7.904;2022-10-30T20:34:40;98850.97;;;11.21;100.00
10474;BME280;5284;50.446;7.904;2022-10-30T20:39:42;98854.03;;;11.16;100.00
10474;BME280;5284;50.446;7.904;2022-10-30T20:44:47;98867.03;;;11.10;100.00
10474;BME280;5284;50.446;7.904;2022-10-30T20:49:50;98861.97;;;11.07;100.00
10474;BME280;5284;50.446;7.904;2022-10-30T20:54:53;98857.97;;;11.01;100.00
10474;BME280;5284;50.446;7.904;2022-10-30T20:59:57;98854.22;;;10.93;100.00
10474;BME280;5284;50.446;7.904;2022-10-30T21:05:02;98863.69;;;10.86;100.00
10474;BME280;5284;50.446;7.904;2022-10-30T21:10:24;98862.38;;;10.80;100.00
10474;BME280;5284;50.446;7.904;2022-10-30T21:15:32;98865.28;;;10.77;100.00
10474;BME280;5284;50.446;7.904;2022-10-30T21:20:35;98877.91;;;10.75;100.00
10474;BME280;5284;50.446;7.904;2022-10-30T21:25:39;98886.88;;;10.74;100.00
10474;BME280;5284;50.446;7.904;2022-10-30T21:30:44;98880.19;;;10.69;100.00
10474;BME280;5284;50.446;7.904;2022-10-30T21:35:46;98883.13;;;10.66;100.00
10474;BME280;5284;50.446;7.904;2022-10-30T21:40:53;98873.56;;;10.63;100.00
10474;BME280;5284;50.446;7.904;2022-10-30T21:45:57;98878.28;;;10.60;100.00
10474;BME280;5284;50.446;7.904;2022-10-30T21:51:08;98881.31;;;10.56;100.00
10474;BME280;5284;50.446;7.904;2022-10-30T21:56:12;98883.38;;;10.52;100.00
10474;BME280;5284;50.446;7.904;2022-10-30T22:01:20;98885.31;;;10.50;100.00
10474;BME280;5284;50.446;7.904;2022-10-30T22:06:23;98878.41;;;10.48;100.00
10474;BME280;5284;50.446;7.904;2022-10-30T22:11:27;98881.19;;;10.46;100.00
10474;BME280;5284;50.446;7.904;2022-10-30T22:16:34;98875.00;;;10.46;100.00
10474;BME280;5284;50.446;7.904;2022-10-30T22:21:37;98871.25;;;10.37;100.00
10474;BME280;5284;50.446;7.904;2022-10-30T22:26:40;98872.34;;;10.35;100.00
10474;BME280;5284;50.446;7.904;2022-10-30T22:31:44;98873.06;;;10.37;100.00
10474;BME280;5284;50.446;7.904;2022-10-30T22:36:47;98870.16;;;10.29;100.00
10474;BME280;5284;50.446;7.904;2022-10-30T22:41:50;98881.56;;;10.31;100.00
10474;BME280;5284;50.446;7.904;2022-10-30T22:46:54;98880.44;;;10.33;100.00
10474;BME280;5284;50.446;7.904;2022-10-30T22:51:57;98890.63;;;10.28;100.00
10474;BME280;5284;50.446;7.904;2022-10-30T22:57:01;98901.06;;;10.20;100.00
10474;BME280;5284;50.446;7.904;2022-10-30T23:02:05;98898.50;;;10.19;100.00
10474;BME280;5284;50.446;7.904;2022-10-30T23:07:07;98896.59;;;10.21;100.00
10474;BME280;5284;50.446;7.904;2022-10-30T23:12:10;98893.06;;;10.20;100.00
10474;BME280;5284;50.446;7.904;2022-10-30T23:17:15;98897.03;;;10.15;100.00
10474;BME280;5284;50.446;7.904;2022-10-30T23:22:18;98906.47;;;10.08;100.00
10474;BME280;5284;50.446;7.904;2022-10-30T23:27:20;98911.41;;;10.01;100.00
10474;BME280;5284;50.446;7.904;2022-10-30T23:32:24;98914.16;;;9.89;100.00
10474;BME280;5284;50.446;7.904;2022-10-30T23:37:27;98911.84;;;9.84;100.00
10474;BME280;5284;50.446;7.904;2022-10-30T23:42:30;98927.56;;;9.76;100.00
10474;BME280;5284;50.446;7.904;2022-10-30T23:47:34;98936.94;;;9.69;100.00
10474;BME280;5284;50.446;7.904;2022-10-30T23:52:43;98937.31;;;9.65;100.00
10474;BME280;5284;50.446;7.904;2022-10-30T23:57:46;98931.59;;;9.58;100.00
